sensor_id;sensor_type;location;lat;lon;timestamp;P1;durP1;ratioP1;P2;durP2;ratioP2
32734;SDS011;19112;51.076;3.706;2023-02-28T00:02:03;14.68;;;6.75;;
32734;SDS011;19112;51.076;3.706;2023-02-28T00:04:29;13.50;;;5.82;;
32734;SDS011;19112;51.076;3.706;2023-02-28T00:06:54;15.15;;;5.78;;
32734;SDS011;19112;51.076;3.706;2023-02-28T00:09:20;17.20;;;6.25;;
32734;SDS011;19112;51.076;3.706;2023-02-28T00:11:46;17.25;;;6.03;;
32734;SDS011;19112;51.076;3.706;2023-02-28T00:14:12;17.77;;;6.43;;
32734;SDS011;19112;51.076;3.706;2023-02-28T00:16:37;21.20;;;6.88;;
32734;SDS011;19112;51.076;3.706;2023-02-28T00:19:03;17.95;;;6.95;;
32734;SDS011;19112;51.076;3.706;2023-02-28T00:21:29;19.63;;;6.70;;
32734;SDS011;19112;51.076;3.706;2023-02-28T00:23:55;15.43;;;6.82;;
32734;SDS011;19112;51.076;3.706;2023-02-28T00:26:21;19.08;;;7.35;;
32734;SDS011;19112;51.076;3.706;2023-02-28T00:28:46;19.33;;;7.22;;
32734;SDS011;19112;51.076;3.706;2023-02-28T00:31:14;21.05;;;7.43;;
32734;SDS011;19112;51.076;3.706;2023-02-28T00:33:40;16.73;;;7.38;;
32734;SDS011;19112;51.076;3.706;2023-02-28T00:36:09;20.30;;;7.60;;
32734;SDS011;19112;51.076;3.706;2023-02-28T00:38:36;17.98;;;7.25;;
32734;SDS011;19112;51.076;3.706;2023-02-28T00:41:10;21.02;;;8.63;;
32734;SDS011;19112;51.076;3.706;2023-02-28T00:43:37;18.52;;;7.57;;
32734;SDS011;19112;51.076;3.706;2023-02-28T00:46:04;22.55;;;7.10;;
32734;SDS011;19112;51.076;3.706;2023-02-28T00:48:31;21.40;;;7.13;;
32734;SDS011;19112;51.076;3.706;2023-02-28T00:51:04;21.70;;;7.47;;
32734;SDS011;19112;51.076;3.706;2023-02-28T00:53:30;20.33;;;7.53;;
32734;SDS011;19112;51.076;3.706;2023-02-28T00:56:04;22.13;;;7.00;;
32734;SDS011;19112;51.076;3.706;2023-02-28T00:58:39;18.00;;;6.60;;
32734;SDS011;19112;51.076;3.706;2023-02-28T01:01:06;21.45;;;7.57;;
32734;SDS011;19112;51.076;3.706;2023-02-28T01:03:35;19.63;;;7.32;;
32734;SDS011;19112;51.076;3.706;2023-02-28T01:09:01;20.40;;;7.38;;
32734;SDS011;19112;51.076;3.706;2023-02-28T01:11:34;19.73;;;7.35;;
32734;SDS011;19112;51.076;3.706;2023-02-28T01:17:13;20.25;;;7.00;;
32734;SDS011;19112;51.076;3.706;2023-02-28T01:19:39;19.08;;;7.30;;
32734;SDS011;19112;51.076;3.706;2023-02-28T01:22:05;18.77;;;7.82;;
32734;SDS011;19112;51.076;3.706;2023-02-28T01:27:20;20.48;;;8.32;;
32734;SDS011;19112;51.076;3.706;2023-02-28T01:32:20;24.05;;;8.65;;
32734;SDS011;19112;51.076;3.706;2023-02-28T01:37:36;21.08;;;8.80;;
32734;SDS011;19112;51.076;3.706;2023-02-28T01:40:07;21.27;;;8.75;;
32734;SDS011;19112;51.076;3.706;2023-02-28T01:42:36;24.92;;;10.30;;
32734;SDS011;19112;51.076;3.706;2023-02-28T01:47:56;25.00;;;10.80;;
32734;SDS011;19112;51.076;3.706;2023-02-28T01:50:43;21.88;;;9.00;;
32734;SDS011;19112;51.076;3.706;2023-02-28T01:56:10;23.10;;;8.80;;
32734;SDS011;19112;51.076;3.706;2023-02-28T02:01:40;21.42;;;8.90;;
32734;SDS011;19112;51.076;3.706;2023-02-28T02:04:16;18.40;;;8.18;;
32734;SDS011;19112;51.076;3.706;2023-02-28T02:06:48;20.80;;;8.57;;
32734;SDS011;19112;51.076;3.706;2023-02-28T02:09:14;21.83;;;8.47;;
32734;SDS011;19112;51.076;3.706;2023-02-28T02:11:40;20.52;;;8.98;;
32734;SDS011;19112;51.076;3.706;2023-02-28T02:17:16;23.88;;;8.73;;
32734;SDS011;19112;51.076;3.706;2023-02-28T02:40:22;20.65;;;8.43;;
32734;SDS011;19112;51.076;3.706;2023-02-28T02:45:46;28.52;;;9.52;;
32734;SDS011;19112;51.076;3.706;2023-02-28T02:48:34;28.00;;;9.85;;
32734;SDS011;19112;51.076;3.706;2023-02-28T02:51:07;22.00;;;9.00;;
32734;SDS011;19112;51.076;3.706;2023-02-28T02:53:46;19.23;;;8.52;;
32734;SDS011;19112;51.076;3.706;2023-02-28T02:59:16;22.83;;;8.98;;
32734;SDS011;19112;51.076;3.706;2023-02-28T03:07:47;22.23;;;8.73;;
32734;SDS011;19112;51.076;3.706;2023-02-28T03:34:00;26.38;;;8.93;;
32734;SDS011;19112;51.076;3.706;2023-02-28T03:36:35;24.60;;;9.70;;
32734;SDS011;19112;51.076;3.706;2023-02-28T03:39:11;25.63;;;10.07;;
32734;SDS011;19112;51.076;3.706;2023-02-28T03:42:06;21.52;;;8.77;;
32734;SDS011;19112;51.076;3.706;2023-02-28T03:44:43;25.83;;;9.38;;
32734;SDS011;19112;51.076;3.706;2023-02-28T03:47:27;22.40;;;8.30;;
32734;SDS011;19112;51.076;3.706;2023-02-28T03:52:50;26.15;;;9.30;;
32734;SDS011;19112;51.076;3.706;2023-02-28T03:55:48;21.23;;;9.35;;
32734;SDS011;19112;51.076;3.706;2023-02-28T04:01:07;22.30;;;9.10;;
32734;SDS011;19112;51.076;3.706;2023-02-28T04:03:49;22.52;;;9.68;;
32734;SDS011;19112;51.076;3.706;2023-02-28T04:06:22;26.60;;;9.70;;
32734;SDS011;19112;51.076;3.706;2023-02-28T04:08:49;24.08;;;9.88;;
32734;SDS011;19112;51.076;3.706;2023-02-28T04:14:02;22.38;;;9.20;;
32734;SDS011;19112;51.076;3.706;2023-02-28T04:16:30;19.13;;;8.15;;
32734;SDS011;19112;51.076;3.706;2023-02-28T04:18:57;22.50;;;8.07;;
32734;SDS011;19112;51.076;3.706;2023-02-28T04:21:29;21.63;;;9.18;;
32734;SDS011;19112;51.076;3.706;2023-02-28T04:24:02;24.85;;;9.38;;
32734;SDS011;19112;51.076;3.706;2023-02-28T04:26:32;22.17;;;8.40;;
32734;SDS011;19112;51.076;3.706;2023-02-28T04:29:02;23.38;;;8.75;;
32734;SDS011;19112;51.076;3.706;2023-02-28T04:31:30;22.10;;;8.75;;
32734;SDS011;19112;51.076;3.706;2023-02-28T04:33:56;23.17;;;9.57;;
32734;SDS011;19112;51.076;3.706;2023-02-28T04:36:22;20.50;;;8.40;;
32734;SDS011;19112;51.076;3.706;2023-02-28T04:38:48;24.02;;;9.70;;
32734;SDS011;19112;51.076;3.706;2023-02-28T04:41:15;20.70;;;9.07;;
32734;SDS011;19112;51.076;3.706;2023-02-28T04:43:41;23.73;;;9.35;;
32734;SDS011;19112;51.076;3.706;2023-02-28T04:46:07;25.75;;;10.00;;
32734;SDS011;19112;51.076;3.706;2023-02-28T04:48:35;23.25;;;8.93;;
32734;SDS011;19112;51.076;3.706;2023-02-28T04:53:34;20.30;;;8.43;;
32734;SDS011;19112;51.076;3.706;2023-02-28T04:56:02;21.70;;;8.85;;
32734;SDS011;19112;51.076;3.706;2023-02-28T04:58:28;22.48;;;8.82;;
32734;SDS011;19112;51.076;3.706;2023-02-28T05:01:00;21.83;;;9.10;;
32734;SDS011;19112;51.076;3.706;2023-02-28T05:03:38;21.60;;;9.07;;
32734;SDS011;19112;51.076;3.706;2023-02-28T05:06:07;20.33;;;8.50;;
32734;SDS011;19112;51.076;3.706;2023-02-28T05:08:34;20.98;;;10.85;;
32734;SDS011;19112;51.076;3.706;2023-02-28T05:11:00;21.95;;;8.68;;
32734;SDS011;19112;51.076;3.706;2023-02-28T05:13:27;23.73;;;8.18;;
32734;SDS011;19112;51.076;3.706;2023-02-28T05:15:54;21.45;;;8.60;;
32734;SDS011;19112;51.076;3.706;2023-02-28T05:18:20;21.75;;;9.38;;
32734;SDS011;19112;51.076;3.706;2023-02-28T05:20:46;22.42;;;8.85;;
32734;SDS011;19112;51.076;3.706;2023-02-28T05:23:12;23.17;;;8.60;;
32734;SDS011;19112;51.076;3.706;2023-02-28T05:25:39;23.00;;;8.70;;
32734;SDS011;19112;51.076;3.706;2023-02-28T05:28:06;21.17;;;8.95;;
32734;SDS011;19112;51.076;3.706;2023-02-28T05:30:34;24.88;;;10.02;;
32734;SDS011;19112;51.076;3.706;2023-02-28T05:33:00;25.70;;;10.15;;
32734;SDS011;19112;51.076;3.706;2023-02-28T05:35:26;24.83;;;9.88;;
32734;SDS011;19112;51.076;3.706;2023-02-28T05:37:52;21.90;;;9.40;;
32734;SDS011;19112;51.076;3.706;2023-02-28T05:40:18;22.65;;;8.73;;
32734;SDS011;19112;51.076;3.706;2023-02-28T05:42:45;21.67;;;8.75;;
32734;SDS011;19112;51.076;3.706;2023-02-28T05:45:11;24.73;;;9.63;;
32734;SDS011;19112;51.076;3.706;2023-02-28T05:47:37;21.20;;;9.05;;
32734;SDS011;19112;51.076;3.706;2023-02-28T05:50:04;21.05;;;8.50;;
32734;SDS011;19112;51.076;3.706;2023-02-28T05:52:30;27.48;;;9.50;;
32734;SDS011;19112;51.076;3.706;2023-02-28T05:54:56;21.90;;;8.93;;
32734;SDS011;19112;51.076;3.706;2023-02-28T05:57:22;22.60;;;9.05;;
32734;SDS011;19112;51.076;3.706;2023-02-28T05:59:49;22.48;;;8.93;;
32734;SDS011;19112;51.076;3.706;2023-02-28T06:02:15;31.98;;;10.77;;
32734;SDS011;19112;51.076;3.706;2023-02-28T06:04:43;25.23;;;9.10;;
32734;SDS011;19112;51.076;3.706;2023-02-28T06:07:10;21.80;;;9.00;;
32734;SDS011;19112;51.076;3.706;2023-02-28T06:09:36;22.50;;;9.98;;
32734;SDS011;19112;51.076;3.706;2023-02-28T06:12:03;23.17;;;9.80;;
32734;SDS011;19112;51.076;3.706;2023-02-28T06:14:31;24.13;;;9.20;;
32734;SDS011;19112;51.076;3.706;2023-02-28T06:16:59;24.45;;;8.52;;
32734;SDS011;19112;51.076;3.706;2023-02-28T06:19:26;20.58;;;8.38;;
32734;SDS011;19112;51.076;3.706;2023-02-28T06:21:52;23.70;;;9.05;;
32734;SDS011;19112;51.076;3.706;2023-02-28T06:24:20;24.38;;;9.45;;
32734;SDS011;19112;51.076;3.706;2023-02-28T06:26:48;27.38;;;8.38;;
32734;SDS011;19112;51.076;3.706;2023-02-28T06:29:14;22.75;;;9.00;;
32734;SDS011;19112;51.076;3.706;2023-02-28T06:31:46;29.70;;;8.95;;
32734;SDS011;19112;51.076;3.706;2023-02-28T06:34:12;23.15;;;8.88;;
32734;SDS011;19112;51.076;3.706;2023-02-28T06:36:39;21.90;;;8.27;;
32734;SDS011;19112;51.076;3.706;2023-02-28T06:39:07;25.05;;;9.30;;
32734;SDS011;19112;51.076;3.706;2023-02-28T06:41:34;23.27;;;8.80;;
32734;SDS011;19112;51.076;3.706;2023-02-28T06:44:10;21.17;;;9.23;;
32734;SDS011;19112;51.076;3.706;2023-02-28T06:46:40;24.20;;;9.32;;
32734;SDS011;19112;51.076;3.706;2023-02-28T06:49:06;20.75;;;8.13;;
32734;SDS011;19112;51.076;3.706;2023-02-28T06:51:34;25.77;;;9.50;;
32734;SDS011;19112;51.076;3.706;2023-02-28T06:54:02;31.52;;;9.98;;
32734;SDS011;19112;51.076;3.706;2023-02-28T06:56:29;25.02;;;8.55;;
32734;SDS011;19112;51.076;3.706;2023-02-28T06:58:55;21.83;;;8.70;;
32734;SDS011;19112;51.076;3.706;2023-02-28T07:01:25;26.27;;;8.18;;
32734;SDS011;19112;51.076;3.706;2023-02-28T07:03:54;24.90;;;8.40;;
32734;SDS011;19112;51.076;3.706;2023-02-28T07:06:26;21.40;;;7.55;;
32734;SDS011;19112;51.076;3.706;2023-02-28T07:08:54;26.35;;;7.57;;
32734;SDS011;19112;51.076;3.706;2023-02-28T07:11:21;31.20;;;8.10;;
32734;SDS011;19112;51.076;3.706;2023-02-28T07:13:51;17.83;;;6.43;;
32734;SDS011;19112;51.076;3.706;2023-02-28T07:16:20;24.58;;;6.38;;
32734;SDS011;19112;51.076;3.706;2023-02-28T07:18:47;21.27;;;6.18;;
32734;SDS011;19112;51.076;3.706;2023-02-28T07:21:13;19.35;;;6.80;;
32734;SDS011;19112;51.076;3.706;2023-02-28T07:23:40;23.95;;;6.20;;
32734;SDS011;19112;51.076;3.706;2023-02-28T07:26:06;22.05;;;7.05;;
32734;SDS011;19112;51.076;3.706;2023-02-28T07:31:08;15.57;;;5.28;;
32734;SDS011;19112;51.076;3.706;2023-02-28T07:33:35;15.25;;;5.32;;
32734;SDS011;19112;51.076;3.706;2023-02-28T07:36:02;18.77;;;5.93;;
32734;SDS011;19112;51.076;3.706;2023-02-28T07:38:34;22.92;;;5.88;;
32734;SDS011;19112;51.076;3.706;2023-02-28T07:41:03;17.27;;;4.60;;
32734;SDS011;19112;51.076;3.706;2023-02-28T07:43:30;23.85;;;4.90;;
32734;SDS011;19112;51.076;3.706;2023-02-28T07:46:01;18.05;;;4.22;;
32734;SDS011;19112;51.076;3.706;2023-02-28T07:48:35;10.60;;;4.07;;
32734;SDS011;19112;51.076;3.706;2023-02-28T07:51:01;16.35;;;4.15;;
32734;SDS011;19112;51.076;3.706;2023-02-28T07:53:39;12.10;;;4.25;;
32734;SDS011;19112;51.076;3.706;2023-02-28T07:56:06;20.30;;;5.82;;
32734;SDS011;19112;51.076;3.706;2023-02-28T07:58:32;18.67;;;4.30;;
32734;SDS011;19112;51.076;3.706;2023-02-28T08:01:08;16.58;;;4.03;;
32734;SDS011;19112;51.076;3.706;2023-02-28T08:03:49;20.25;;;4.82;;
32734;SDS011;19112;51.076;3.706;2023-02-28T08:06:33;18.38;;;5.15;;
32734;SDS011;19112;51.076;3.706;2023-02-28T08:09:07;18.17;;;5.47;;
32734;SDS011;19112;51.076;3.706;2023-02-28T08:11:40;21.17;;;5.50;;
32734;SDS011;19112;51.076;3.706;2023-02-28T08:16:38;22.88;;;7.18;;
32734;SDS011;19112;51.076;3.706;2023-02-28T08:19:06;18.80;;;6.72;;
32734;SDS011;19112;51.076;3.706;2023-02-28T08:21:35;16.35;;;5.95;;
32734;SDS011;19112;51.076;3.706;2023-02-28T08:24:01;16.17;;;5.45;;
32734;SDS011;19112;51.076;3.706;2023-02-28T08:26:29;14.48;;;6.10;;
32734;SDS011;19112;51.076;3.706;2023-02-28T08:28:58;16.00;;;6.80;;
32734;SDS011;19112;51.076;3.706;2023-02-28T08:31:26;33.40;;;8.23;;
32734;SDS011;19112;51.076;3.706;2023-02-28T08:34:12;20.80;;;7.07;;
32734;SDS011;19112;51.076;3.706;2023-02-28T08:36:40;21.33;;;6.30;;
32734;SDS011;19112;51.076;3.706;2023-02-28T08:39:13;19.30;;;6.72;;
32734;SDS011;19112;51.076;3.706;2023-02-28T08:41:39;20.75;;;6.60;;
32734;SDS011;19112;51.076;3.706;2023-02-28T08:44:06;20.52;;;6.57;;
32734;SDS011;19112;51.076;3.706;2023-02-28T08:46:32;20.35;;;7.57;;
32734;SDS011;19112;51.076;3.706;2023-02-28T08:51:45;16.27;;;6.80;;
32734;SDS011;19112;51.076;3.706;2023-02-28T08:54:16;18.67;;;7.25;;
32734;SDS011;19112;51.076;3.706;2023-02-28T08:56:44;22.50;;;7.28;;
32734;SDS011;19112;51.076;3.706;2023-02-28T09:02:03;21.23;;;7.72;;
32734;SDS011;19112;51.076;3.706;2023-02-28T09:04:37;17.00;;;6.50;;
32734;SDS011;19112;51.076;3.706;2023-02-28T09:09:33;20.42;;;6.88;;
32734;SDS011;19112;51.076;3.706;2023-02-28T09:12:00;18.98;;;6.72;;
32734;SDS011;19112;51.076;3.706;2023-02-28T09:14:34;19.35;;;7.13;;
32734;SDS011;19112;51.076;3.706;2023-02-28T09:17:08;17.20;;;6.60;;
32734;SDS011;19112;51.076;3.706;2023-02-28T09:19:39;20.83;;;7.40;;
32734;SDS011;19112;51.076;3.706;2023-02-28T09:22:11;25.83;;;9.05;;
32734;SDS011;19112;51.076;3.706;2023-02-28T09:24:39;17.45;;;7.03;;
32734;SDS011;19112;51.076;3.706;2023-02-28T09:27:12;19.20;;;6.78;;
32734;SDS011;19112;51.076;3.706;2023-02-28T09:32:25;19.45;;;6.53;;
32734;SDS011;19112;51.076;3.706;2023-02-28T09:37:33;19.17;;;6.10;;
32734;SDS011;19112;51.076;3.706;2023-02-28T09:39:59;18.75;;;6.88;;
32734;SDS011;19112;51.076;3.706;2023-02-28T09:42:29;20.50;;;6.70;;
32734;SDS011;19112;51.076;3.706;2023-02-28T09:50:23;18.13;;;5.50;;
32734;SDS011;19112;51.076;3.706;2023-02-28T09:52:51;21.60;;;6.28;;
32734;SDS011;19112;51.076;3.706;2023-02-28T09:55:28;17.85;;;6.13;;
32734;SDS011;19112;51.076;3.706;2023-02-28T09:58:14;15.20;;;5.70;;
32734;SDS011;19112;51.076;3.706;2023-02-28T10:01:21;16.25;;;5.70;;
32734;SDS011;19112;51.076;3.706;2023-02-28T10:25:51;13.82;;;4.82;;
32734;SDS011;19112;51.076;3.706;2023-02-28T10:28:45;13.35;;;4.78;;
32734;SDS011;19112;51.076;3.706;2023-02-28T10:31:15;18.23;;;4.80;;
32734;SDS011;19112;51.076;3.706;2023-02-28T10:33:45;13.93;;;4.68;;
32734;SDS011;19112;51.076;3.706;2023-02-28T10:36:16;14.60;;;4.40;;
32734;SDS011;19112;51.076;3.706;2023-02-28T10:38:45;14.05;;;4.32;;
32734;SDS011;19112;51.076;3.706;2023-02-28T10:41:14;9.05;;;3.65;;
32734;SDS011;19112;51.076;3.706;2023-02-28T10:46:53;10.73;;;4.00;;
32734;SDS011;19112;51.076;3.706;2023-02-28T10:49:30;9.77;;;4.20;;
32734;SDS011;19112;51.076;3.706;2023-02-28T10:52:01;12.52;;;4.55;;
32734;SDS011;19112;51.076;3.706;2023-02-28T10:54:36;11.82;;;3.97;;
32734;SDS011;19112;51.076;3.706;2023-02-28T11:05:57;12.18;;;4.03;;
32734;SDS011;19112;51.076;3.706;2023-02-28T11:08:29;12.23;;;4.05;;
32734;SDS011;19112;51.076;3.706;2023-02-28T11:10:56;12.55;;;4.13;;
32734;SDS011;19112;51.076;3.706;2023-02-28T11:13:27;10.18;;;3.50;;
32734;SDS011;19112;51.076;3.706;2023-02-28T11:16:07;13.88;;;4.30;;
32734;SDS011;19112;51.076;3.706;2023-02-28T11:18:39;8.10;;;3.42;;
32734;SDS011;19112;51.076;3.706;2023-02-28T11:21:19;8.95;;;4.00;;
32734;SDS011;19112;51.076;3.706;2023-02-28T11:24:12;12.43;;;4.57;;
32734;SDS011;19112;51.076;3.706;2023-02-28T11:26:55;10.32;;;4.05;;
32734;SDS011;19112;51.076;3.706;2023-02-28T11:29:26;17.15;;;4.68;;
32734;SDS011;19112;51.076;3.706;2023-02-28T11:35:00;15.48;;;4.40;;
32734;SDS011;19112;51.076;3.706;2023-02-28T11:37:36;13.85;;;4.68;;
32734;SDS011;19112;51.076;3.706;2023-02-28T11:40:14;11.95;;;4.18;;
32734;SDS011;19112;51.076;3.706;2023-02-28T11:45:54;8.50;;;4.07;;
32734;SDS011;19112;51.076;3.706;2023-02-28T11:51:27;10.65;;;4.55;;
32734;SDS011;19112;51.076;3.706;2023-02-28T11:54:18;11.05;;;4.18;;
32734;SDS011;19112;51.076;3.706;2023-02-28T12:00:07;11.40;;;4.22;;
32734;SDS011;19112;51.076;3.706;2023-02-28T12:05:40;16.92;;;4.47;;
32734;SDS011;19112;51.076;3.706;2023-02-28T12:11:29;15.13;;;4.88;;
32734;SDS011;19112;51.076;3.706;2023-02-28T12:14:23;14.70;;;4.15;;
32734;SDS011;19112;51.076;3.706;2023-02-28T12:28:24;11.38;;;4.30;;
32734;SDS011;19112;51.076;3.706;2023-02-28T12:33:30;8.60;;;3.78;;
32734;SDS011;19112;51.076;3.706;2023-02-28T12:36:05;11.45;;;3.60;;
32734;SDS011;19112;51.076;3.706;2023-02-28T12:38:47;9.35;;;3.55;;
32734;SDS011;19112;51.076;3.706;2023-02-28T12:41:37;9.30;;;3.38;;
32734;SDS011;19112;51.076;3.706;2023-02-28T12:47:15;11.05;;;4.18;;
32734;SDS011;19112;51.076;3.706;2023-02-28T12:58:36;12.68;;;3.80;;
32734;SDS011;19112;51.076;3.706;2023-02-28T13:10:18;10.68;;;3.72;;
32734;SDS011;19112;51.076;3.706;2023-02-28T13:12:48;8.15;;;3.70;;
32734;SDS011;19112;51.076;3.706;2023-02-28T13:17:50;7.82;;;3.50;;
32734;SDS011;19112;51.076;3.706;2023-02-28T13:20:20;12.98;;;3.83;;
32734;SDS011;19112;51.076;3.706;2023-02-28T13:23:58;7.05;;;3.75;;
32734;SDS011;19112;51.076;3.706;2023-02-28T13:26:09;8.27;;;3.58;;
32734;SDS011;19112;51.076;3.706;2023-02-28T13:34:31;11.27;;;3.45;;
32734;SDS011;19112;51.076;3.706;2023-02-28T13:39:46;9.68;;;3.30;;
32734;SDS011;19112;51.076;3.706;2023-02-28T13:52:57;10.60;;;3.90;;
32734;SDS011;19112;51.076;3.706;2023-02-28T14:01:43;11.60;;;4.03;;
32734;SDS011;19112;51.076;3.706;2023-02-28T14:07:18;10.65;;;3.55;;
32734;SDS011;19112;51.076;3.706;2023-02-28T14:09:55;9.63;;;3.67;;
32734;SDS011;19112;51.076;3.706;2023-02-28T14:21:23;9.30;;;3.78;;
32734;SDS011;19112;51.076;3.706;2023-02-28T14:36:01;12.75;;;4.55;;
32734;SDS011;19112;51.076;3.706;2023-02-28T14:39:07;11.30;;;4.18;;
32734;SDS011;19112;51.076;3.706;2023-02-28T14:42:00;9.25;;;3.70;;
32734;SDS011;19112;51.076;3.706;2023-02-28T14:44:29;11.93;;;4.20;;
32734;SDS011;19112;51.076;3.706;2023-02-28T14:47:02;10.02;;;4.20;;
32734;SDS011;19112;51.076;3.706;2023-02-28T14:49:41;9.98;;;4.30;;
32734;SDS011;19112;51.076;3.706;2023-02-28T14:55:03;12.75;;;4.32;;
32734;SDS011;19112;51.076;3.706;2023-02-28T14:57:59;12.18;;;4.35;;
32734;SDS011;19112;51.076;3.706;2023-02-28T15:00:47;13.27;;;4.60;;
32734;SDS011;19112;51.076;3.706;2023-02-28T15:06:05;12.63;;;4.82;;
32734;SDS011;19112;51.076;3.706;2023-02-28T15:08:42;10.13;;;4.50;;
32734;SDS011;19112;51.076;3.706;2023-02-28T15:11:17;14.32;;;4.40;;
32734;SDS011;19112;51.076;3.706;2023-02-28T15:13:52;12.65;;;4.60;;
32734;SDS011;19112;51.076;3.706;2023-02-28T15:21:56;14.65;;;5.15;;
32734;SDS011;19112;51.076;3.706;2023-02-28T15:28:14;14.60;;;4.53;;
32734;SDS011;19112;51.076;3.706;2023-02-28T15:37:01;11.05;;;4.55;;
32734;SDS011;19112;51.076;3.706;2023-02-28T15:48:21;11.73;;;5.25;;
32734;SDS011;19112;51.076;3.706;2023-02-28T15:53:28;15.25;;;4.65;;
32734;SDS011;19112;51.076;3.706;2023-02-28T15:56:04;10.93;;;4.97;;
32734;SDS011;19112;51.076;3.706;2023-02-28T15:58:55;10.95;;;4.90;;
32734;SDS011;19112;51.076;3.706;2023-02-28T16:01:32;11.43;;;5.00;;
32734;SDS011;19112;51.076;3.706;2023-02-28T16:04:01;11.48;;;4.80;;
32734;SDS011;19112;51.076;3.706;2023-02-28T16:09:43;14.23;;;5.10;;
32734;SDS011;19112;51.076;3.706;2023-02-28T16:12:09;11.60;;;4.82;;
32734;SDS011;19112;51.076;3.706;2023-02-28T16:14:39;10.40;;;4.63;;
32734;SDS011;19112;51.076;3.706;2023-02-28T16:17:17;16.13;;;5.05;;
32734;SDS011;19112;51.076;3.706;2023-02-28T16:19:58;10.45;;;4.50;;
32734;SDS011;19112;51.076;3.706;2023-02-28T16:22:27;17.10;;;5.20;;
32734;SDS011;19112;51.076;3.706;2023-02-28T16:24:52;13.35;;;5.53;;
32734;SDS011;19112;51.076;3.706;2023-02-28T16:27:20;11.35;;;4.93;;
32734;SDS011;19112;51.076;3.706;2023-02-28T16:29:56;12.55;;;5.13;;
32734;SDS011;19112;51.076;3.706;2023-02-28T16:32:30;11.00;;;4.82;;
32734;SDS011;19112;51.076;3.706;2023-02-28T16:34:59;14.20;;;5.10;;
32734;SDS011;19112;51.076;3.706;2023-02-28T16:37:27;14.77;;;5.47;;
32734;SDS011;19112;51.076;3.706;2023-02-28T16:39:54;12.98;;;5.32;;
32734;SDS011;19112;51.076;3.706;2023-02-28T16:42:23;14.32;;;5.20;;
32734;SDS011;19112;51.076;3.706;2023-02-28T16:44:54;14.38;;;5.03;;
32734;SDS011;19112;51.076;3.706;2023-02-28T16:47:21;15.80;;;6.10;;
32734;SDS011;19112;51.076;3.706;2023-02-28T16:49:53;15.32;;;5.05;;
32734;SDS011;19112;51.076;3.706;2023-02-28T16:52:20;13.95;;;5.05;;
32734;SDS011;19112;51.076;3.706;2023-02-28T16:54:50;14.68;;;4.75;;
32734;SDS011;19112;51.076;3.706;2023-02-28T16:57:19;11.10;;;4.90;;
32734;SDS011;19112;51.076;3.706;2023-02-28T16:59:52;11.32;;;4.85;;
32734;SDS011;19112;51.076;3.706;2023-02-28T17:02:18;11.65;;;5.10;;
32734;SDS011;19112;51.076;3.706;2023-02-28T17:04:44;12.32;;;5.20;;
32734;SDS011;19112;51.076;3.706;2023-02-28T17:07:13;15.68;;;5.75;;
32734;SDS011;19112;51.076;3.706;2023-02-28T17:09:45;18.25;;;5.63;;
32734;SDS011;19112;51.076;3.706;2023-02-28T17:15:08;16.85;;;5.85;;
32734;SDS011;19112;51.076;3.706;2023-02-28T17:20:33;14.15;;;5.72;;
32734;SDS011;19112;51.076;3.706;2023-02-28T17:22:59;15.88;;;5.93;;
32734;SDS011;19112;51.076;3.706;2023-02-28T17:30:45;14.52;;;5.68;;
32734;SDS011;19112;51.076;3.706;2023-02-28T17:33:12;14.40;;;5.80;;
32734;SDS011;19112;51.076;3.706;2023-02-28T17:35:39;15.98;;;6.20;;
32734;SDS011;19112;51.076;3.706;2023-02-28T17:38:08;17.33;;;6.80;;
32734;SDS011;19112;51.076;3.706;2023-02-28T17:40:42;14.45;;;6.38;;
32734;SDS011;19112;51.076;3.706;2023-02-28T17:43:08;14.75;;;6.57;;
32734;SDS011;19112;51.076;3.706;2023-02-28T17:45:34;16.70;;;6.60;;
32734;SDS011;19112;51.076;3.706;2023-02-28T17:48:02;14.45;;;6.78;;
32734;SDS011;19112;51.076;3.706;2023-02-28T17:50:28;14.93;;;6.07;;
32734;SDS011;19112;51.076;3.706;2023-02-28T17:53:01;18.13;;;6.88;;
32734;SDS011;19112;51.076;3.706;2023-02-28T18:00:49;19.50;;;7.03;;
32734;SDS011;19112;51.076;3.706;2023-02-28T18:03:20;17.73;;;7.47;;
32734;SDS011;19112;51.076;3.706;2023-02-28T18:08:17;20.05;;;8.20;;
32734;SDS011;19112;51.076;3.706;2023-02-28T18:10:43;21.15;;;8.02;;
32734;SDS011;19112;51.076;3.706;2023-02-28T18:13:10;19.17;;;7.40;;
32734;SDS011;19112;51.076;3.706;2023-02-28T18:15:37;20.35;;;7.30;;
32734;SDS011;19112;51.076;3.706;2023-02-28T18:18:06;17.67;;;7.60;;
32734;SDS011;19112;51.076;3.706;2023-02-28T18:20:49;16.58;;;7.60;;
32734;SDS011;19112;51.076;3.706;2023-02-28T18:25:45;20.58;;;6.97;;
32734;SDS011;19112;51.076;3.706;2023-02-28T18:30:41;19.35;;;7.47;;
32734;SDS011;19112;51.076;3.706;2023-02-28T18:33:13;17.48;;;6.82;;
32734;SDS011;19112;51.076;3.706;2023-02-28T18:35:44;15.45;;;6.45;;
32734;SDS011;19112;51.076;3.706;2023-02-28T18:38:14;20.00;;;7.30;;
32734;SDS011;19112;51.076;3.706;2023-02-28T18:40:50;22.17;;;8.15;;
32734;SDS011;19112;51.076;3.706;2023-02-28T18:43:19;19.45;;;7.63;;
32734;SDS011;19112;51.076;3.706;2023-02-28T18:45:45;18.08;;;7.60;;
32734;SDS011;19112;51.076;3.706;2023-02-28T18:48:20;17.98;;;7.38;;
32734;SDS011;19112;51.076;3.706;2023-02-28T18:50:55;19.80;;;7.43;;
32734;SDS011;19112;51.076;3.706;2023-02-28T18:53:21;17.67;;;7.47;;
32734;SDS011;19112;51.076;3.706;2023-02-28T18:55:47;17.60;;;7.85;;
32734;SDS011;19112;51.076;3.706;2023-02-28T18:58:15;20.05;;;7.80;;
32734;SDS011;19112;51.076;3.706;2023-02-28T19:00:43;17.80;;;7.28;;
32734;SDS011;19112;51.076;3.706;2023-02-28T19:03:09;16.88;;;6.68;;
32734;SDS011;19112;51.076;3.706;2023-02-28T19:05:36;17.80;;;7.65;;
32734;SDS011;19112;51.076;3.706;2023-02-28T19:10:30;19.17;;;7.93;;
32734;SDS011;19112;51.076;3.706;2023-02-28T19:12:58;20.23;;;8.30;;
32734;SDS011;19112;51.076;3.706;2023-02-28T19:15:24;22.92;;;9.45;;
32734;SDS011;19112;51.076;3.706;2023-02-28T19:17:50;20.55;;;7.70;;
32734;SDS011;19112;51.076;3.706;2023-02-28T19:20:17;19.52;;;8.13;;
32734;SDS011;19112;51.076;3.706;2023-02-28T19:22:44;18.08;;;7.88;;
32734;SDS011;19112;51.076;3.706;2023-02-28T19:25:15;18.27;;;7.60;;
32734;SDS011;19112;51.076;3.706;2023-02-28T19:27:41;20.50;;;7.93;;
32734;SDS011;19112;51.076;3.706;2023-02-28T19:30:07;17.08;;;7.68;;
32734;SDS011;19112;51.076;3.706;2023-02-28T19:32:35;15.80;;;7.45;;
32734;SDS011;19112;51.076;3.706;2023-02-28T19:35:01;19.65;;;8.57;;
32734;SDS011;19112;51.076;3.706;2023-02-28T19:37:28;20.77;;;7.68;;
32734;SDS011;19112;51.076;3.706;2023-02-28T19:39:54;18.38;;;7.90;;
32734;SDS011;19112;51.076;3.706;2023-02-28T19:42:21;16.60;;;7.20;;
32734;SDS011;19112;51.076;3.706;2023-02-28T19:44:47;20.95;;;8.25;;
32734;SDS011;19112;51.076;3.706;2023-02-28T19:47:13;21.00;;;7.85;;
32734;SDS011;19112;51.076;3.706;2023-02-28T19:49:39;18.75;;;7.35;;
32734;SDS011;19112;51.076;3.706;2023-02-28T19:52:05;20.63;;;8.15;;
32734;SDS011;19112;51.076;3.706;2023-02-28T19:54:32;19.92;;;7.63;;
32734;SDS011;19112;51.076;3.706;2023-02-28T19:56:59;20.80;;;7.15;;
32734;SDS011;19112;51.076;3.706;2023-02-28T19:59:27;17.00;;;8.00;;
32734;SDS011;19112;51.076;3.706;2023-02-28T20:01:55;17.58;;;7.30;;
32734;SDS011;19112;51.076;3.706;2023-02-28T20:04:21;18.38;;;7.30;;
32734;SDS011;19112;51.076;3.706;2023-02-28T20:06:49;18.33;;;7.50;;
32734;SDS011;19112;51.076;3.706;2023-02-28T20:09:15;20.27;;;7.63;;
32734;SDS011;19112;51.076;3.706;2023-02-28T20:11:44;16.98;;;7.80;;
32734;SDS011;19112;51.076;3.706;2023-02-28T20:14:12;19.05;;;8.43;;
32734;SDS011;19112;51.076;3.706;2023-02-28T20:16:50;19.60;;;8.73;;